sensor_id;sensor_type;location;lat;lon;timestamp;temperature;humidity
39099;DHT22;24844;52.380;7.018;2023-02-15T00:01:44;3.00;99.90
39099;DHT22;24844;52.380;7.018;2023-02-15T00:04:13;2.10;99.90
39099;DHT22;24844;52.380;7.018;2023-02-15T00:06:39;2.20;99.90
39099;DHT22;24844;52.380;7.018;2023-02-15T00:09:04;2.40;99.90
39099;DHT22;24844;52.380;7.018;2023-02-15T00:11:30;2.50;99.90
39099;DHT22;24844;52.380;7.018;2023-02-15T00:16:38;2.50;99.90
39099;DHT22;24844;52.380;7.018;2023-02-15T00:19:04;2.50;99.90
39099;DHT22;24844;52.380;7.018;2023-02-15T00:21:31;2.50;99.90
39099;DHT22;24844;52.380;7.018;2023-02-15T00:23:59;2.50;99.90
39099;DHT22;24844;52.380;7.018;2023-02-15T00:26:26;2.50;99.90
39099;DHT22;24844;52.380;7.018;2023-02-15T00:28:52;2.50;99.90
39099;DHT22;24844;52.380;7.018;2023-02-15T00:31:18;2.50;99.90
39099;DHT22;24844;52.380;7.018;2023-02-15T00:33:44;2.60;99.90
39099;DHT22;24844;52.380;7.018;2023-02-15T00:36:10;2.60;99.90
39099;DHT22;24844;52.380;7.018;2023-02-15T00:38:36;2.60;99.90
39099;DHT22;24844;52.380;7.018;2023-02-15T00:41:05;2.50;99.90
39099;DHT22;24844;52.380;7.018;2023-02-15T00:43:31;2.60;99.90
39099;DHT22;24844;52.380;7.018;2023-02-15T00:45:57;2.60;99.90
39099;DHT22;24844;52.380;7.018;2023-02-15T00:48:23;2.60;99.90
39099;DHT22;24844;52.380;7.018;2023-02-15T00:50:51;2.60;99.90
39099;DHT22;24844;52.380;7.018;2023-02-15T00:53:16;2.70;99.90
39099;DHT22;24844;52.380;7.018;2023-02-15T00:55:42;2.60;99.90
39099;DHT22;24844;52.380;7.018;2023-02-15T00:58:09;2.50;99.90
39099;DHT22;24844;52.380;7.018;2023-02-15T01:00:35;2.30;99.90
39099;DHT22;24844;52.380;7.018;2023-02-15T01:03:02;2.20;99.90
39099;DHT22;24844;52.380;7.018;2023-02-15T01:05:27;2.30;99.90
39099;DHT22;24844;52.380;7.018;2023-02-15T01:07:55;2.30;99.90
39099;DHT22;24844;52.380;7.018;2023-02-15T01:10:21;2.20;99.90
39099;DHT22;24844;52.380;7.018;2023-02-15T01:12:47;2.00;99.90
39099;DHT22;24844;52.380;7.018;2023-02-15T01:15:13;2.00;99.90
39099;DHT22;24844;52.380;7.018;2023-02-15T01:17:39;2.00;99.90
39099;DHT22;24844;52.380;7.018;2023-02-15T01:20:05;2.20;99.90
39099;DHT22;24844;52.380;7.018;2023-02-15T01:22:31;2.10;99.90
39099;DHT22;24844;52.380;7.018;2023-02-15T01:24:57;2.10;99.90
39099;DHT22;24844;52.380;7.018;2023-02-15T01:27:22;2.10;99.90
39099;DHT22;24844;52.380;7.018;2023-02-15T01:29:48;2.30;99.90
39099;DHT22;24844;52.380;7.018;2023-02-15T01:32:14;2.30;99.90
39099;DHT22;24844;52.380;7.018;2023-02-15T01:34:39;2.30;99.90
39099;DHT22;24844;52.380;7.018;2023-02-15T01:37:05;2.30;99.90
39099;DHT22;24844;52.380;7.018;2023-02-15T01:39:30;2.20;99.90
39099;DHT22;24844;52.380;7.018;2023-02-15T01:41:56;2.00;99.90
39099;DHT22;24844;52.380;7.018;2023-02-15T01:45:28;2.10;99.90
39099;DHT22;24844;52.380;7.018;2023-02-15T01:47:45;2.10;99.90
39099;DHT22;24844;52.380;7.018;2023-02-15T01:50:29;2.20;99.90
39099;DHT22;24844;52.380;7.018;2023-02-15T01:53:01;2.00;99.90
39099;DHT22;24844;52.380;7.018;2023-02-15T01:55:33;1.80;99.90
39099;DHT22;24844;52.380;7.018;2023-02-15T01:57:59;1.70;99.90
39099;DHT22;24844;52.380;7.018;2023-02-15T02:00:25;1.50;99.90
39099;DHT22;24844;52.380;7.018;2023-02-15T02:02:53;1.50;99.90
39099;DHT22;24844;52.380;7.018;2023-02-15T02:05:20;1.70;99.90
39099;DHT22;24844;52.380;7.018;2023-02-15T02:07:46;1.80;99.90
39099;DHT22;24844;52.380;7.018;2023-02-15T02:10:18;1.90;99.90
39099;DHT22;24844;52.380;7.018;2023-02-15T02:12:46;1.90;99.90
39099;DHT22;24844;52.380;7.018;2023-02-15T02:15:12;1.60;99.90
39099;DHT22;24844;52.380;7.018;2023-02-15T02:18:09;1.50;99.90
39099;DHT22;24844;52.380;7.018;2023-02-15T02:26:27;1.70;99.90
39099;DHT22;24844;52.380;7.018;2023-02-15T02:35:15;1.60;99.90
39099;DHT22;24844;52.380;7.018;2023-02-15T02:37:54;1.50;99.90
39099;DHT22;24844;52.380;7.018;2023-02-15T03:09:08;1.50;99.90
39099;DHT22;24844;52.380;7.018;2023-02-15T03:11:43;1.70;99.90
39099;DHT22;24844;52.380;7.018;2023-02-15T03:14:10;1.60;99.90
39099;DHT22;24844;52.380;7.018;2023-02-15T03:16:37;1.70;99.90
39099;DHT22;24844;52.380;7.018;2023-02-15T03:19:10;1.00;99.90
39099;DHT22;24844;52.380;7.018;2023-02-15T03:24:28;1.00;99.90
39099;DHT22;24844;52.380;7.018;2023-02-15T03:26:57;1.20;99.90
39099;DHT22;24844;52.380;7.018;2023-02-15T03:29:25;1.20;99.90
39099;DHT22;24844;52.380;7.018;2023-02-15T03:31:59;1.30;99.90
39099;DHT22;24844;52.380;7.018;2023-02-15T03:34:26;1.20;99.90
39099;DHT22;24844;52.380;7.018;2023-02-15T03:37:15;0.80;99.90
39099;DHT22;24844;52.380;7.018;2023-02-15T03:39:54;0.70;99.90
39099;DHT22;24844;52.380;7.018;2023-02-15T03:42:32;0.80;99.90
39099;DHT22;24844;52.380;7.018;2023-02-15T03:45:09;0.90;99.90
39099;DHT22;24844;52.380;7.018;2023-02-15T03:47:43;1.00;99.90
39099;DHT22;24844;52.380;7.018;2023-02-15T03:50:19;1.00;99.90
39099;DHT22;24844;52.380;7.018;2023-02-15T03:53:07;0.90;99.90
39099;DHT22;24844;52.380;7.018;2023-02-15T03:55:34;0.90;99.90
39099;DHT22;24844;52.380;7.018;2023-02-15T03:58:00;1.10;99.90
39099;DHT22;24844;52.380;7.018;2023-02-15T04:01:00;1.10;99.90
39099;DHT22;24844;52.380;7.018;2023-02-15T04:04:09;1.10;99.90
39099;DHT22;24844;52.380;7.018;2023-02-15T04:06:37;1.10;99.90
39099;DHT22;24844;52.380;7.018;2023-02-15T04:09:02;1.20;99.90
39099;DHT22;24844;52.380;7.018;2023-02-15T04:11:46;1.30;99.90
39099;DHT22;24844;52.380;7.018;2023-02-15T04:14:12;1.30;99.90
39099;DHT22;24844;52.380;7.018;2023-02-15T04:16:56;1.30;99.90
39099;DHT22;24844;52.380;7.018;2023-02-15T04:19:22;1.30;99.90
39099;DHT22;24844;52.380;7.018;2023-02-15T04:22:06;1.30;99.90
39099;DHT22;24844;52.380;7.018;2023-02-15T04:24:50;1.10;99.90
39099;DHT22;24844;52.380;7.018;2023-02-15T04:27:34;0.70;99.90
39099;DHT22;24844;52.380;7.018;2023-02-15T04:29:59;0.50;99.90
39099;DHT22;24844;52.380;7.018;2023-02-15T04:32:25;0.50;99.90
39099;DHT22;24844;52.380;7.018;2023-02-15T04:34:50;0.60;99.90
39099;DHT22;24844;52.380;7.018;2023-02-15T04:37:16;0.60;99.90
39099;DHT22;24844;52.380;7.018;2023-02-15T04:39:41;0.60;99.90
39099;DHT22;24844;52.380;7.018;2023-02-15T04:42:07;0.70;99.90
39099;DHT22;24844;52.380;7.018;2023-02-15T04:44:33;0.80;99.90
39099;DHT22;24844;52.380;7.018;2023-02-15T04:46:58;0.80;99.90
39099;DHT22;24844;52.380;7.018;2023-02-15T04:49:24;0.90;99.90
39099;DHT22;24844;52.380;7.018;2023-02-15T04:51:49;0.80;99.90
39099;DHT22;24844;52.380;7.018;2023-02-15T04:54:15;0.90;99.90
39099;DHT22;24844;52.380;7.018;2023-02-15T04:56:42;1.10;99.90
39099;DHT22;24844;52.380;7.018;2023-02-15T04:59:10;1.00;99.90
39099;DHT22;24844;52.380;7.018;2023-02-15T05:01:36;1.00;99.90
39099;DHT22;24844;52.380;7.018;2023-02-15T05:04:02;1.00;99.90
39099;DHT22;24844;52.380;7.018;2023-02-15T05:06:28;1.00;99.90
39099;DHT22;24844;52.380;7.018;2023-02-15T05:08:53;1.00;99.90
39099;DHT22;24844;52.380;7.018;2023-02-15T05:11:19;1.00;99.90
39099;DHT22;24844;52.380;7.018;2023-02-15T05:13:45;0.90;99.90
39099;DHT22;24844;52.380;7.018;2023-02-15T05:16:10;0.80;99.90
39099;DHT22;24844;52.380;7.018;2023-02-15T05:18:36;0.70;99.90
39099;DHT22;24844;52.380;7.018;2023-02-15T05:21:01;0.50;99.90
39099;DHT22;24844;52.380;7.018;2023-02-15T05:23:27;0.30;99.90
39099;DHT22;24844;52.380;7.018;2023-02-15T05:25:52;0.30;99.90
39099;DHT22;24844;52.380;7.018;2023-02-15T05:28:37;0.50;99.90
39099;DHT22;24844;52.380;7.018;2023-02-15T05:31:05;0.60;99.90
39099;DHT22;24844;52.380;7.018;2023-02-15T05:33:32;0.60;99.90
39099;DHT22;24844;52.380;7.018;2023-02-15T05:35:57;0.70;99.90
39099;DHT22;24844;52.380;7.018;2023-02-15T05:38:23;0.80;99.90
39099;DHT22;24844;52.380;7.018;2023-02-15T05:40:50;0.80;99.90
39099;DHT22;24844;52.380;7.018;2023-02-15T05:43:16;0.80;99.90
39099;DHT22;24844;52.380;7.018;2023-02-15T05:45:48;0.80;99.90
39099;DHT22;24844;52.380;7.018;2023-02-15T05:48:15;0.70;99.90
39099;DHT22;24844;52.380;7.018;2023-02-15T05:50:40;0.70;99.90
39099;DHT22;24844;52.380;7.018;2023-02-15T05:53:06;0.70;99.90
39099;DHT22;24844;52.380;7.018;2023-02-15T05:55:32;0.70;99.90
39099;DHT22;24844;52.380;7.018;2023-02-15T05:57:57;0.70;99.90
39099;DHT22;24844;52.380;7.018;2023-02-15T06:00:23;0.60;99.90
39099;DHT22;24844;52.380;7.018;2023-02-15T06:02:49;0.60;99.90
39099;DHT22;24844;52.380;7.018;2023-02-15T06:05:14;0.60;99.90
39099;DHT22;24844;52.380;7.018;2023-02-15T06:07:43;0.70;99.90
39099;DHT22;24844;52.380;7.018;2023-02-15T06:10:09;0.70;99.90
39099;DHT22;24844;52.380;7.018;2023-02-15T06:12:34;0.60;99.90
39099;DHT22;24844;52.380;7.018;2023-02-15T06:15:00;0.40;99.90
39099;DHT22;24844;52.380;7.018;2023-02-15T06:17:26;0.50;99.90
39099;DHT22;24844;52.380;7.018;2023-02-15T06:19:51;0.70;99.90
39099;DHT22;24844;52.380;7.018;2023-02-15T06:22:17;0.70;99.90
39099;DHT22;24844;52.380;7.018;2023-02-15T06:24:42;0.80;99.90
39099;DHT22;24844;52.380;7.018;2023-02-15T06:27:09;0.80;99.90
39099;DHT22;24844;52.380;7.018;2023-02-15T06:29:35;0.70;99.90
39099;DHT22;24844;52.380;7.018;2023-02-15T06:32:01;0.70;99.90
39099;DHT22;24844;52.380;7.018;2023-02-15T06:34:26;0.70;99.90
39099;DHT22;24844;52.380;7.018;2023-02-15T06:36:52;0.70;99.90
39099;DHT22;24844;52.380;7.018;2023-02-15T06:39:17;0.70;99.90
39099;DHT22;24844;52.380;7.018;2023-02-15T06:41:43;0.70;99.90
39099;DHT22;24844;52.380;7.018;2023-02-15T06:44:09;0.70;99.90
39099;DHT22;24844;52.380;7.018;2023-02-15T06:46:34;0.70;99.90
39099;DHT22;24844;52.380;7.018;2023-02-15T06:49:00;0.80;99.90
39099;DHT22;24844;52.380;7.018;2023-02-15T06:51:25;0.80;99.90
39099;DHT22;24844;52.380;7.018;2023-02-15T06:53:51;0.80;99.90
39099;DHT22;24844;52.380;7.018;2023-02-15T06:56:16;0.90;99.90
39099;DHT22;24844;52.380;7.018;2023-02-15T06:58:42;0.90;99.90
39099;DHT22;24844;52.380;7.018;2023-02-15T07:01:09;0.90;99.90
39099;DHT22;24844;52.380;7.018;2023-02-15T07:03:35;1.00;99.90
39099;DHT22;24844;52.380;7.018;2023-02-15T07:06:02;0.90;99.90
39099;DHT22;24844;52.380;7.018;2023-02-15T07:08:28;0.70;99.90
39099;DHT22;24844;52.380;7.018;2023-02-15T07:10:55;0.70;99.90
39099;DHT22;24844;52.380;7.018;2023-02-15T07:13:41;0.50;99.90
39099;DHT22;24844;52.380;7.018;2023-02-15T07:16:08;0.70;99.90
39099;DHT22;24844;52.380;7.018;2023-02-15T07:18:34;0.90;99.90
39099;DHT22;24844;52.380;7.018;2023-02-15T07:20:59;1.20;99.90
39099;DHT22;24844;52.380;7.018;2023-02-15T07:23:25;1.30;99.90
39099;DHT22;24844;52.380;7.018;2023-02-15T07:25:59;1.40;99.90
39099;DHT22;24844;52.380;7.018;2023-02-15T07:28:25;1.50;99.90
39099;DHT22;24844;52.380;7.018;2023-02-15T07:30:51;1.60;99.90
39099;DHT22;24844;52.380;7.018;2023-02-15T07:33:17;1.60;99.90
39099;DHT22;24844;52.380;7.018;2023-02-15T07:35:54;1.70;99.90
39099;DHT22;24844;52.380;7.018;2023-02-15T07:38:21;1.80;99.90
39099;DHT22;24844;52.380;7.018;2023-02-15T07:40:47;1.80;99.90
39099;DHT22;24844;52.380;7.018;2023-02-15T07:43:13;1.60;99.90
39099;DHT22;24844;52.380;7.018;2023-02-15T07:45:40;1.60;99.90
39099;DHT22;24844;52.380;7.018;2023-02-15T07:48:06;1.90;99.90
39099;DHT22;24844;52.380;7.018;2023-02-15T07:50:33;2.10;99.90
39099;DHT22;24844;52.380;7.018;2023-02-15T07:53:00;2.30;99.90
39099;DHT22;24844;52.380;7.018;2023-02-15T07:55:26;2.50;99.90
39099;DHT22;24844;52.380;7.018;2023-02-15T07:57:52;2.20;99.90
39099;DHT22;24844;52.380;7.018;2023-02-15T08:00:20;2.00;99.90
39099;DHT22;24844;52.380;7.018;2023-02-15T08:02:52;2.00;99.90
39099;DHT22;24844;52.380;7.018;2023-02-15T08:05:41;2.20;99.90
39099;DHT22;24844;52.380;7.018;2023-02-15T08:08:08;2.40;99.90
39099;DHT22;24844;52.380;7.018;2023-02-15T08:10:35;2.60;99.90
39099;DHT22;24844;52.380;7.018;2023-02-15T08:13:19;2.50;99.90
39099;DHT22;24844;52.380;7.018;2023-02-15T08:15:51;2.50;99.90
39099;DHT22;24844;52.380;7.018;2023-02-15T08:18:17;2.60;99.90
39099;DHT22;24844;52.380;7.018;2023-02-15T08:20:48;2.80;99.90
39099;DHT22;24844;52.380;7.018;2023-02-15T08:23:13;2.90;99.90
39099;DHT22;24844;52.380;7.018;2023-02-15T08:25:39;3.00;99.90
39099;DHT22;24844;52.380;7.018;2023-02-15T08:28:05;3.30;99.90
39099;DHT22;24844;52.380;7.018;2023-02-15T08:30:30;3.60;99.90
39099;DHT22;24844;52.380;7.018;2023-02-15T08:32:56;3.80;99.90
39099;DHT22;24844;52.380;7.018;2023-02-15T08:35:21;3.90;99.90
39099;DHT22;24844;52.380;7.018;2023-02-15T08:37:47;3.90;99.90
39099;DHT22;24844;52.380;7.018;2023-02-15T08:40:12;4.10;99.90
39099;DHT22;24844;52.380;7.018;2023-02-15T08:42:39;4.30;99.90
39099;DHT22;24844;52.380;7.018;2023-02-15T08:45:04;4.20;99.90
39099;DHT22;24844;52.380;7.018;2023-02-15T08:47:30;4.50;99.90
39099;DHT22;24844;52.380;7.018;2023-02-15T08:49:55;4.80;99.90
39099;DHT22;24844;52.380;7.018;2023-02-15T12:44:33;12.70;99.90
39099;DHT22;24844;52.380;7.018;2023-02-15T12:56:51;13.50;99.90
39099;DHT22;24844;52.380;7.018;2023-02-15T12:59:22;13.70;99.90
39099;DHT22;24844;52.380;7.018;2023-02-15T13:01:48;13.70;99.90
39099;DHT22;24844;52.380;7.018;2023-02-15T13:04:32;13.60;99.90
39099;DHT22;24844;52.380;7.018;2023-02-15T13:07:01;13.70;99.90
39099;DHT22;24844;52.380;7.018;2023-02-15T13:12:03;13.70;99.90
39099;DHT22;24844;52.380;7.018;2023-02-15T13:14:34;13.70;99.90
39099;DHT22;24844;52.380;7.018;2023-02-15T13:17:02;13.90;99.90
39099;DHT22;24844;52.380;7.018;2023-02-15T13:19:41;13.40;99.90
39099;DHT22;24844;52.380;7.018;2023-02-15T13:22:25;13.70;99.90
39099;DHT22;24844;52.380;7.018;2023-02-15T13:25:08;13.90;99.90
39099;DHT22;24844;52.380;7.018;2023-02-15T13:27:38;13.90;99.90
39099;DHT22;24844;52.380;7.018;2023-02-15T13:30:24;13.40;99.90
39099;DHT22;24844;52.380;7.018;2023-02-15T13:38:02;13.20;99.90
39099;DHT22;24844;52.380;7.018;2023-02-15T13:40:53;13.30;99.90
39099;DHT22;24844;52.380;7.018;2023-02-15T13:46:10;13.50;99.90
39099;DHT22;24844;52.380;7.018;2023-02-15T13:48:47;13.70;99.90
39099;DHT22;24844;52.380;7.018;2023-02-15T13:51:43;13.90;99.90
39099;DHT22;24844;52.380;7.018;2023-02-15T13:54:44;13.90;99.90
39099;DHT22;24844;52.380;7.018;2023-02-15T13:57:40;14.00;99.90
39099;DHT22;24844;52.380;7.018;2023-02-15T14:16:35;14.20;99.90
39099;DHT22;24844;52.380;7.018;2023-02-15T14:21:55;14.10;99.90
39099;DHT22;24844;52.380;7.018;2023-02-15T14:24:26;14.10;99.90
39099;DHT22;24844;52.380;7.018;2023-02-15T14:27:11;14.10;99.90
39099;DHT22;24844;52.380;7.018;2023-02-15T14:29:54;13.50;99.90
39099;DHT22;24844;52.380;7.018;2023-02-15T14:32:30;13.10;99.90
39099;DHT22;24844;52.380;7.018;2023-02-15T14:35:00;13.10;99.90
39099;DHT22;24844;52.380;7.018;2023-02-15T14:43:05;12.70;99.90
39099;DHT22;24844;52.380;7.018;2023-02-15T14:46:23;12.70;99.90
39099;DHT22;24844;52.380;7.018;2023-02-15T14:48:42;12.60;99.90
39099;DHT22;24844;52.380;7.018;2023-02-15T14:51:10;12.60;99.90
39099;DHT22;24844;52.380;7.018;2023-02-15T14:53:39;12.60;99.90
39099;DHT22;24844;52.380;7.018;2023-02-15T14:58:56;12.70;99.90
39099;DHT22;24844;52.380;7.018;2023-02-15T15:01:32;12.70;99.90
39099;DHT22;24844;52.380;7.018;2023-02-15T15:06:36;12.70;99.90
39099;DHT22;24844;52.380;7.018;2023-02-15T15:12:14;12.70;99.90
39099;DHT22;24844;52.380;7.018;2023-02-15T15:14:42;12.60;99.90
39099;DHT22;24844;52.380;7.018;2023-02-15T15:17:11;12.70;99.90
39099;DHT22;24844;52.380;7.018;2023-02-15T15:24:51;13.00;99.90
39099;DHT22;24844;52.380;7.018;2023-02-15T15:32:34;12.70;99.90
39099;DHT22;24844;52.380;7.018;2023-02-15T15:38:12;12.70;99.90
39099;DHT22;24844;52.380;7.018;2023-02-15T15:41:17;12.70;99.90
39099;DHT22;24844;52.380;7.018;2023-02-15T15:49:16;12.60;99.90
39099;DHT22;24844;52.380;7.018;2023-02-15T15:51:43;12.70;99.90
39099;DHT22;24844;52.380;7.018;2023-02-15T15:54:17;12.70;99.90
39099;DHT22;24844;52.380;7.018;2023-02-15T15:59:17;12.90;99.90
39099;DHT22;24844;52.380;7.018;2023-02-15T16:01:45;12.90;99.90
39099;DHT22;24844;52.380;7.018;2023-02-15T16:06:40;12.70;99.90
39099;DHT22;24844;52.380;7.018;2023-02-15T16:09:15;12.70;99.90
39099;DHT22;24844;52.380;7.018;2023-02-15T16:11:42;12.70;99.90
39099;DHT22;24844;52.380;7.018;2023-02-15T16:14:16;12.40;99.90
39099;DHT22;24844;52.380;7.018;2023-02-15T16:16:54;12.30;99.90
39099;DHT22;24844;52.380;7.018;2023-02-15T16:19:39;11.90;99.90
39099;DHT22;24844;52.380;7.018;2023-02-15T16:22:18;11.80;99.90
39099;DHT22;24844;52.380;7.018;2023-02-15T16:25:21;11.70;99.90
39099;DHT22;24844;52.380;7.018;2023-02-15T16:27:50;11.70;99.90
39099;DHT22;24844;52.380;7.018;2023-02-15T16:30:33;11.70;99.90
39099;DHT22;24844;52.380;7.018;2023-02-15T16:33:08;11.90;99.90
39099;DHT22;24844;52.380;7.018;2023-02-15T16:40:40;11.90;99.90
39099;DHT22;24844;52.380;7.018;2023-02-15T16:45:36;11.90;99.90
39099;DHT22;24844;52.380;7.018;2023-02-15T16:48:08;11.70;99.90
39099;DHT22;24844;52.380;7.018;2023-02-15T16:50:37;11.50;99.90
39099;DHT22;24844;52.380;7.018;2023-02-15T16:53:05;11.50;99.90
39099;DHT22;24844;52.380;7.018;2023-02-15T16:55:40;11.60;99.90
39099;DHT22;24844;52.380;7.018;2023-02-15T16:58:12;11.50;99.90
39099;DHT22;24844;52.380;7.018;2023-02-15T17:00:39;11.30;99.90
39099;DHT22;24844;52.380;7.018;2023-02-15T17:05:58;10.90;99.90
39099;DHT22;24844;52.380;7.018;2023-02-15T17:11:12;11.10;99.90
39099;DHT22;24844;52.380;7.018;2023-02-15T17:13:39;11.20;99.90
39099;DHT22;24844;52.380;7.018;2023-02-15T17:16:20;11.10;99.90
39099;DHT22;24844;52.380;7.018;2023-02-15T17:18:47;11.10;99.90
39099;DHT22;24844;52.380;7.018;2023-02-15T17:21:18;11.00;99.90
39099;DHT22;24844;52.380;7.018;2023-02-15T17:23:49;10.90;99.90
39099;DHT22;24844;52.380;7.018;2023-02-15T17:26:21;10.90;99.90
39099;DHT22;24844;52.380;7.018;2023-02-15T17:28:55;10.90;99.90
39099;DHT22;24844;52.380;7.018;2023-02-15T17:31:25;10.90;99.90
39099;DHT22;24844;52.380;7.018;2023-02-15T17:33:54;10.90;99.90
39099;DHT22;24844;52.380;7.018;2023-02-15T17:36:23;10.80;99.90
39099;DHT22;24844;52.380;7.018;2023-02-15T17:41:24;10.60;99.90
39099;DHT22;24844;52.380;7.018;2023-02-15T17:43:50;10.40;99.90
39099;DHT22;24844;52.380;7.018;2023-02-15T17:46:15;10.20;99.90
39099;DHT22;24844;52.380;7.018;2023-02-15T17:48:46;10.20;99.90
39099;DHT22;24844;52.380;7.018;2023-02-15T17:51:14;10.10;99.90
39099;DHT22;24844;52.380;7.018;2023-02-15T17:53:41;10.00;99.90
39099;DHT22;24844;52.380;7.018;2023-02-15T17:56:26;10.00;99.90
39099;DHT22;24844;52.380;7.018;2023-02-15T17:58:52;10.20;99.90
39099;DHT22;24844;52.380;7.018;2023-02-15T18:01:18;10.10;99.90
39099;DHT22;24844;52.380;7.018;2023-02-15T18:04:04;10.00;99.90
39099;DHT22;24844;52.380;7.018;2023-02-15T18:06:49;10.00;99.90
39099;DHT22;24844;52.380;7.018;2023-02-15T18:09:33;9.90;99.90
39099;DHT22;24844;52.380;7.018;2023-02-15T18:14:50;10.00;99.90
39099;DHT22;24844;52.380;7.018;2023-02-15T18:17:17;9.80;99.90
39099;DHT22;24844;52.380;7.018;2023-02-15T18:19:44;9.70;99.90
39099;DHT22;24844;52.380;7.018;2023-02-15T18:22:12;9.60;99.90
39099;DHT22;24844;52.380;7.018;2023-02-15T18:24:38;9.50;99.90
39099;DHT22;24844;52.380;7.018;2023-02-15T18:27:05;9.50;99.90
39099;DHT22;24844;52.380;7.018;2023-02-15T18:29:31;9.50;99.90
39099;DHT22;24844;52.380;7.018;2023-02-15T18:31:57;9.60;99.90
39099;DHT22;24844;52.380;7.018;2023-02-15T18:34:32;9.70;99.90
39099;DHT22;24844;52.380;7.018;2023-02-15T18:37:00;9.70;99.90
39099;DHT22;24844;52.380;7.018;2023-02-15T18:41:56;9.80;99.90
39099;DHT22;24844;52.380;7.018;2023-02-15T18:44:22;9.90;99.90
39099;DHT22;24844;52.380;7.018;2023-02-15T18:46:48;9.90;99.90
39099;DHT22;24844;52.380;7.018;2023-02-15T18:49:13;10.00;99.90
39099;DHT22;24844;52.380;7.018;2023-02-15T18:51:39;10.00;99.90
39099;DHT22;24844;52.380;7.018;2023-02-15T18:54:15;10.00;99.90
39099;DHT22;24844;52.380;7.018;2023-02-15T18:56:41;10.00;99.90
39099;DHT22;24844;52.380;7.018;2023-02-15T18:59:13;9.90;99.90
39099;DHT22;24844;52.380;7.018;2023-02-15T19:01:39;9.80;99.90
39099;DHT22;24844;52.380;7.018;2023-02-15T19:04:07;9.60;99.90
39099;DHT22;24844;52.380;7.018;2023-02-15T19:06:32;9.40;99.90
39099;DHT22;24844;52.380;7.018;2023-02-15T19:08:58;9.40;99.90
39099;DHT22;24844;52.380;7.018;2023-02-15T19:11:23;9.40;99.90
39099;DHT22;24844;52.380;7.018;2023-02-15T19:13:50;9.40;99.90
39099;DHT22;24844;52.380;7.018;2023-02-15T19:16:32;9.30;99.90
39099;DHT22;24844;52.380;7.018;2023-02-15T19:18:59;9.40;99.90
39099;DHT22;24844;52.380;7.018;2023-02-15T19:21:27;9.60;99.90
39099;DHT22;24844;52.380;7.018;2023-02-15T19:24:00;9.50;99.90
39099;DHT22;24844;52.380;7.018;2023-02-15T19:26:27;9.60;99.90
39099;DHT22;24844;52.380;7.018;2023-02-15T19:28:58;9.60;99.90
39099;DHT22;24844;52.380;7.018;2023-02-15T19:31:25;9.60;99.90
39099;DHT22;24844;52.380;7.018;2023-02-15T19:33:51;9.50;99.90
39099;DHT22;24844;52.380;7.018;2023-02-15T19:36:17;9.40;99.90
39099;DHT22;24844;52.380;7.018;2023-02-15T19:38:47;9.50;99.90
39099;DHT22;24844;52.380;7.018;2023-02-15T19:41:29;9.60;99.90
39099;DHT22;24844;52.380;7.018;2023-02-15T19:43:57;9.70;99.90
39099;DHT22;24844;52.380;7.018;2023-02-15T19:46:23;9.70;99.90
39099;DHT22;24844;52.380;7.018;2023-02-15T19:48:51;9.80;99.90
39099;DHT22;24844;52.380;7.018;2023-02-15T19:51:17;9.80;99.90
39099;DHT22;24844;52.380;7.018;2023-02-15T19:53:45;9.80;99.90
39099;DHT22;24844;52.380;7.018;2023-02-15T19:56:20;9.80;99.90
39099;DHT22;24844;52.380;7.018;2023-02-15T19:58:47;9.80;99.90
39099;DHT22;24844;52.380;7.018;2023-02-15T20:01:13;9.80;99.90
39099;DHT22;24844;52.380;7.018;2023-02-15T20:03:38;9.80;99.90
39099;DHT22;24844;52.380;7.018;2023-02-15T20:06:04;10.10;99.90
39099;DHT22;24844;52.380;7.018;2023-02-15T20:08:30;10.10;99.90
39099;DHT22;24844;52.380;7.018;2023-02-15T20:10:57;9.90;99.90
39099;DHT22;24844;52.380;7.018;2023-02-15T20:13:25;9.70;99.90
39099;DHT22;24844;52.380;7.018;2023-02-15T20:15:53;9.60;99.90
39099;DHT22;24844;52.380;7.018;2023-02-15T20:18:18;9.60;99.90
39099;DHT22;24844;52.380;7.018;2023-02-15T20:20:47;9.60;99.90
39099;DHT22;24844;52.380;7.018;2023-02-15T20:23:25;9.60;99.90
39099;DHT22;24844;52.380;7.018;2023-02-15T20:25:52;9.50;99.90
39099;DHT22;24844;52.380;7.018;2023-02-15T20:28:27;9.50;99.90
39099;DHT22;24844;52.380;7.018;2023-02-15T20:30:53;9.60;99.90
39099;DHT22;24844;52.380;7.018;2023-02-15T20:33:19;9.50;99.90
39099;DHT22;24844;52.380;7.018;2023-02-15T20:35:46;9.40;99.90
39099;DHT22;24844;52.380;7.018;2023-02-15T20:38:26;9.40;99.90
39099;DHT22;24844;52.380;7.018;2023-02-15T20:40:53;9.50;99.90
39099;DHT22;24844;52.380;7.018;2023-02-15T20:43:38;9.50;99.90
39099;DHT22;24844;52.380;7.018;2023-02-15T20:46:05;9.50;99.90
39099;DHT22;24844;52.380;7.018;2023-02-15T20:48:31;9.50;99.90
39099;DHT22;24844;52.380;7.018;2023-02-15T20:50:57;9.50;99.90
39099;DHT22;24844;52.380;7.018;2023-02-15T20:53:23;9.30;99.90
39099;DHT22;24844;52.380;7.018;2023-02-15T20:55:49;9.30;99.90
39099;DHT22;24844;52.380;7.018;2023-02-15T20:58:23;9.30;99.90
39099;DHT22;24844;52.380;7.018;2023-02-15T21:00:50;9.30;99.90
39099;DHT22;24844;52.380;7.018;2023-02-15T21:03:17;9.20;99.90
39099;DHT22;24844;52.380;7.018;2023-02-15T21:05:44;9.20;99.90
39099;DHT22;24844;52.380;7.018;2023-02-15T21:08:16;9.20;99.90
39099;DHT22;24844;52.380;7.018;2023-02-15T21:10:43;9.20;99.90
39099;DHT22;24844;52.380;7.018;2023-02-15T21:13:23;9.20;99.90
39099;DHT22;24844;52.380;7.018;2023-02-15T21:15:50;9.10;99.90
39099;DHT22;24844;52.380;7.018;2023-02-15T21:20:50;9.00;99.90
39099;DHT22;24844;52.380;7.018;2023-02-15T21:23:33;9.00;99.90
39099;DHT22;24844;52.380;7.018;2023-02-15T21:26:00;9.00;99.90
39099;DHT22;24844;52.380;7.018;2023-02-15T21:28:27;9.00;99.90
39099;DHT22;24844;52.380;7.018;2023-02-15T21:30:54;9.00;99.90
39099;DHT22;24844;52.380;7.018;2023-02-15T21:33:22;8.90;99.90
39099;DHT22;24844;52.380;7.018;2023-02-15T21:35:50;8.80;99.90
39099;DHT22;24844;52.380;7.018;2023-02-15T21:38:23;8.80;99.90
39099;DHT22;24844;52.380;7.018;2023-02-15T21:40:49;8.80;99.90
39099;DHT22;24844;52.380;7.018;2023-02-15T21:43:23;8.80;99.90
39099;DHT22;24844;52.380;7.018;2023-02-15T21:46:16;8.80;99.90
39099;DHT22;24844;52.380;7.018;2023-02-15T21:51:28;8.50;99.90
39099;DHT22;24844;52.380;7.018;2023-02-15T21:54:12;8.60;99.90
39099;DHT22;24844;52.380;7.018;2023-02-15T21:56:39;8.70;99.90
39099;DHT22;24844;52.380;7.018;2023-02-15T21:59:08;8.70;99.90
39099;DHT22;24844;52.380;7.018;2023-02-15T22:01:34;8.60;99.90
39099;DHT22;24844;52.380;7.018;2023-02-15T22:03:59;8.60;99.90
39099;DHT22;24844;52.380;7.018;2023-02-15T22:06:25;8.70;99.90
39099;DHT22;24844;52.380;7.018;2023-02-15T22:08:51;8.70;99.90
39099;DHT22;24844;52.380;7.018;2023-02-15T22:11:18;8.70;99.90
39099;DHT22;24844;52.380;7.018;2023-02-15T22:13:46;8.60;99.90
39099;DHT22;24844;52.380;7.018;2023-02-15T22:16:17;8.40;99.90
39099;DHT22;24844;52.380;7.018;2023-02-15T22:18:44;8.50;99.90
39099;DHT22;24844;52.380;7.018;2023-02-15T22:21:10;8.60;99.90
39099;DHT22;24844;52.380;7.018;2023-02-15T22:23:37;8.70;99.90